sensor_id;sensor_type;location;lat;lon;timestamp;pressure;altitude;pressure_sealevel;temperature;humidity
64115;BME280;62188;35.640;139.748;2022-09-01T00:00:44;101040.06;;;29.92;55.81
64115;BME280;62188;35.640;139.748;2022-09-01T00:03:05;101037.36;;;29.98;55.98
64115;BME280;62188;35.640;139.748;2022-09-01T00:05:30;101031.82;;;29.76;55.74
64115;BME280;62188;35.640;139.748;2022-09-01T00:07:55;101042.52;;;29.58;55.58
64115;BME280;62188;35.640;139.748;2022-09-01T00:10:21;101057.49;;;30.05;55.62
64115;BME280;62188;35.640;139.748;2022-09-01T00:12:46;101061.31;;;29.77;55.60
64115;BME280;62188;35.640;139.748;2022-09-01T00:15:13;101064.80;;;29.56;55.84
64115;BME280;62188;35.640;139.748;2022-09-01T00:17:38;101065.77;;;29.78;55.74
64115;BME280;62188;35.640;139.748;2022-09-01T00:20:03;101057.69;;;29.47;55.73
64115;BME280;62188;35.640;139.748;2022-09-01T00:22:28;101055.00;;;29.41;55.35
64115;BME280;62188;35.640;139.748;2022-09-01T00:24:53;101049.05;;;29.55;55.31
64115;BME280;62188;35.640;139.748;2022-09-01T00:27:19;101043.93;;;29.61;55.33
64115;BME280;62188;35.640;139.748;2022-09-01T00:29:43;101042.82;;;29.54;54.58
64115;BME280;62188;35.640;139.748;2022-09-01T00:32:09;101052.48;;;29.47;55.04
64115;BME280;62188;35.640;139.748;2022-09-01T00:34:35;101053.30;;;29.18;55.06
64115;BME280;62188;35.640;139.748;2022-09-01T00:37:01;101048.98;;;29.50;55.38
64115;BME280;62188;35.640;139.748;2022-09-01T00:39:25;101049.01;;;29.71;54.72
64115;BME280;62188;35.640;139.748;2022-09-01T00:41:51;101046.83;;;29.51;54.70
64115;BME280;62188;35.640;139.748;2022-09-01T00:44:19;101044.68;;;29.36;54.69
64115;BME280;62188;35.640;139.748;2022-09-01T00:46:44;101038.34;;;29.50;54.74
64115;BME280;62188;35.640;139.748;2022-09-01T00:49:09;101042.16;;;29.22;54.91
64115;BME280;62188;35.640;139.748;2022-09-01T00:51:34;101037.78;;;29.42;55.11
64115;BME280;62188;35.640;139.748;2022-09-01T00:53:58;101027.18;;;29.40;54.99
64115;BME280;62188;35.640;139.748;2022-09-01T00:56:23;101014.91;;;29.38;55.12
64115;BME280;62188;35.640;139.748;2022-09-01T00:58:48;101011.62;;;29.23;55.11
64115;BME280;62188;35.640;139.748;2022-09-01T01:01:14;101001.81;;;29.52;54.85
64115;BME280;62188;35.640;139.748;2022-09-01T01:03:40;101001.00;;;29.61;54.68
64115;BME280;62188;35.640;139.748;2022-09-01T01:06:07;101002.18;;;29.99;54.83
64115;BME280;62188;35.640;139.748;2022-09-01T01:08:32;101010.33;;;29.53;54.53
64115;BME280;62188;35.640;139.748;2022-09-01T01:10:56;101012.66;;;29.54;54.30
64115;BME280;62188;35.640;139.748;2022-09-01T01:13:21;101012.49;;;29.75;54.45
64115;BME280;62188;35.640;139.748;2022-09-01T01:15:47;101013.51;;;29.61;54.35
64115;BME280;62188;35.640;139.748;2022-09-01T01:18:12;101014.71;;;29.91;54.19
64115;BME280;62188;35.640;139.748;2022-09-01T01:20:38;101009.49;;;30.15;54.11
64115;BME280;62188;35.640;139.748;2022-09-01T01:23:08;101010.85;;;29.69;54.08
64115;BME280;62188;35.640;139.748;2022-09-01T01:25:30;101010.68;;;29.92;54.00
64115;BME280;62188;35.640;139.748;2022-09-01T01:28:03;101004.60;;;29.97;54.19
64115;BME280;62188;35.640;139.748;2022-09-01T01:30:20;101000.32;;;30.00;53.75
64115;BME280;62188;35.640;139.748;2022-09-01T01:32:45;100991.99;;;29.77;53.76
64115;BME280;62188;35.640;139.748;2022-09-01T01:35:11;100994.45;;;29.91;53.91
64115;BME280;62188;35.640;139.748;2022-09-01T01:37:35;100989.95;;;30.21;53.56
64115;BME280;62188;35.640;139.748;2022-09-01T01:40:00;100995.78;;;30.09;53.35
64115;BME280;62188;35.640;139.748;2022-09-01T01:42:26;101005.93;;;30.17;53.33
64115;BME280;62188;35.640;139.748;2022-09-01T01:44:51;101016.06;;;30.19;53.49
64115;BME280;62188;35.640;139.748;2022-09-01T01:47:16;101031.69;;;30.50;53.51
64115;BME280;62188;35.640;139.748;2022-09-01T01:49:42;101038.31;;;30.36;53.39
64115;BME280;62188;35.640;139.748;2022-09-01T01:52:07;101037.22;;;30.49;53.14
64115;BME280;62188;35.640;139.748;2022-09-01T01:54:32;101035.62;;;30.40;52.83
64115;BME280;62188;35.640;139.748;2022-09-01T01:56:58;101031.78;;;30.88;52.62
64115;BME280;62188;35.640;139.748;2022-09-01T01:59:23;101035.45;;;30.93;52.84
64115;BME280;62188;35.640;139.748;2022-09-01T02:01:48;101028.54;;;31.14;52.71
64115;BME280;62188;35.640;139.748;2022-09-01T02:04:13;101014.53;;;31.00;52.31
64115;BME280;62188;35.640;139.748;2022-09-01T02:06:39;100998.65;;;31.21;52.01
64115;BME280;62188;35.640;139.748;2022-09-01T02:09:05;100988.20;;;31.17;52.83
64115;BME280;62188;35.640;139.748;2022-09-01T02:11:31;101002.21;;;31.59;51.95
64115;BME280;62188;35.640;139.748;2022-09-01T02:13:55;100994.93;;;31.49;51.53
64115;BME280;62188;35.640;139.748;2022-09-01T02:16:21;100994.88;;;31.39;51.09
64115;BME280;62188;35.640;139.748;2022-09-01T02:18:46;100997.13;;;31.77;51.46
64115;BME280;62188;35.640;139.748;2022-09-01T02:21:12;100990.44;;;31.91;50.31
64115;BME280;62188;35.640;139.748;2022-09-01T02:23:37;100984.29;;;31.71;50.25
64115;BME280;62188;35.640;139.748;2022-09-01T02:26:02;100978.29;;;31.66;50.84
64115;BME280;62188;35.640;139.748;2022-09-01T02:28:28;100979.52;;;31.99;50.22
64115;BME280;62188;35.640;139.748;2022-09-01T02:30:53;100978.90;;;32.02;49.40
64115;BME280;62188;35.640;139.748;2022-09-01T02:33:18;100970.02;;;32.07;48.61
64115;BME280;62188;35.640;139.748;2022-09-01T02:35:43;100978.84;;;32.18;48.37
64115;BME280;62188;35.640;139.748;2022-09-01T02:38:08;100980.18;;;31.98;48.04
64115;BME280;62188;35.640;139.748;2022-09-01T02:40:33;100962.85;;;31.71;48.18
64115;BME280;62188;35.640;139.748;2022-09-01T02:43:00;100957.07;;;32.02;48.71
64115;BME280;62188;35.640;139.748;2022-09-01T02:45:24;100957.90;;;32.15;48.15
64115;BME280;62188;35.640;139.748;2022-09-01T02:47:49;100958.58;;;31.98;48.76
64115;BME280;62188;35.640;139.748;2022-09-01T02:50:16;100946.68;;;31.96;48.27
64115;BME280;62188;35.640;139.748;2022-09-01T02:52:39;100929.12;;;32.19;48.11
64115;BME280;62188;35.640;139.748;2022-09-01T02:55:06;100935.89;;;32.03;48.07
64115;BME280;62188;35.640;139.748;2022-09-01T02:57:31;100936.61;;;32.13;47.53
64115;BME280;62188;35.640;139.748;2022-09-01T02:59:56;100936.95;;;32.11;47.49
64115;BME280;62188;35.640;139.748;2022-09-01T03:02:20;100939.80;;;32.21;47.43
64115;BME280;62188;35.640;139.748;2022-09-01T03:04:46;100935.10;;;32.54;47.75
64115;BME280;62188;35.640;139.748;2022-09-01T03:07:11;100925.47;;;32.38;47.34
64115;BME280;62188;35.640;139.748;2022-09-01T03:09:37;100926.07;;;31.90;47.63
64115;BME280;62188;35.640;139.748;2022-09-01T03:12:02;100929.65;;;32.23;47.06
64115;BME280;62188;35.640;139.748;2022-09-01T03:14:27;100925.68;;;32.37;47.10
64115;BME280;62188;35.640;139.748;2022-09-01T03:16:53;100920.47;;;32.46;46.88
64115;BME280;62188;35.640;139.748;2022-09-01T03:19:18;100919.57;;;32.52;46.94
64115;BME280;62188;35.640;139.748;2022-09-01T03:21:45;100917.89;;;32.70;46.59
64115;BME280;62188;35.640;139.748;2022-09-01T03:24:09;100918.88;;;33.03;45.64
64115;BME280;62188;35.640;139.748;2022-09-01T03:26:33;100914.42;;;33.33;45.11
64115;BME280;62188;35.640;139.748;2022-09-01T03:28:59;100918.58;;;33.23;44.87
64115;BME280;62188;35.640;139.748;2022-09-01T03:31:24;100906.30;;;33.36;44.43
64115;BME280;62188;35.640;139.748;2022-09-01T03:33:49;100916.99;;;32.97;44.01
64115;BME280;62188;35.640;139.748;2022-09-01T03:36:15;100915.00;;;32.58;44.39
64115;BME280;62188;35.640;139.748;2022-09-01T03:38:39;100908.40;;;32.33;44.79
64115;BME280;62188;35.640;139.748;2022-09-01T03:41:05;100890.95;;;32.77;45.04
64115;BME280;62188;35.640;139.748;2022-09-01T03:43:32;100895.71;;;32.60;45.46
64115;BME280;62188;35.640;139.748;2022-09-01T03:45:58;100883.43;;;32.88;45.04
64115;BME280;62188;35.640;139.748;2022-09-01T03:48:22;100877.37;;;33.11;44.65
64115;BME280;62188;35.640;139.748;2022-09-01T03:50:47;100874.69;;;32.66;44.48
64115;BME280;62188;35.640;139.748;2022-09-01T03:53:12;100880.56;;;33.32;44.39
64115;BME280;62188;35.640;139.748;2022-09-01T03:55:37;100877.94;;;32.98;44.03
64115;BME280;62188;35.640;139.748;2022-09-01T03:58:04;100885.72;;;33.49;43.72
64115;BME280;62188;35.640;139.748;2022-09-01T04:00:28;100882.56;;;33.32;43.58
64115;BME280;62188;35.640;139.748;2022-09-01T04:02:55;100879.94;;;33.53;43.07
64115;BME280;62188;35.640;139.748;2022-09-01T04:05:18;100885.16;;;33.63;41.97
64115;BME280;62188;35.640;139.748;2022-09-01T04:07:43;100898.11;;;33.76;42.03
64115;BME280;62188;35.640;139.748;2022-09-01T04:10:09;100898.15;;;33.85;41.53
64115;BME280;62188;35.640;139.748;2022-09-01T04:12:34;100897.97;;;33.98;41.78
64115;BME280;62188;35.640;139.748;2022-09-01T04:14:59;100903.06;;;34.16;41.37
64115;BME280;62188;35.640;139.748;2022-09-01T04:17:24;100896.88;;;34.16;41.35
64115;BME280;62188;35.640;139.748;2022-09-01T04:19:49;100895.88;;;33.98;41.28
64115;BME280;62188;35.640;139.748;2022-09-01T04:22:14;100891.00;;;33.75;41.31
64115;BME280;62188;35.640;139.748;2022-09-01T04:24:40;100887.17;;;33.40;41.56
64115;BME280;62188;35.640;139.748;2022-09-01T04:27:05;100873.99;;;33.57;41.75
64115;BME280;62188;35.640;139.748;2022-09-01T04:29:30;100874.41;;;33.73;41.40
64115;BME280;62188;35.640;139.748;2022-09-01T04:31:57;100875.58;;;33.46;41.88
64115;BME280;62188;35.640;139.748;2022-09-01T04:34:21;100876.24;;;33.21;41.96
64115;BME280;62188;35.640;139.748;2022-09-01T04:36:45;100875.61;;;32.84;42.23
64115;BME280;62188;35.640;139.748;2022-09-01T04:39:11;100872.61;;;32.68;42.46
64115;BME280;62188;35.640;139.748;2022-09-01T04:41:41;100868.99;;;32.62;42.86
64115;BME280;62188;35.640;139.748;2022-09-01T04:44:03;100865.24;;;32.95;42.97
64115;BME280;62188;35.640;139.748;2022-09-01T04:46:27;100862.24;;;32.95;43.09
64115;BME280;62188;35.640;139.748;2022-09-01T04:48:53;100857.02;;;32.99;43.12
64115;BME280;62188;35.640;139.748;2022-09-01T04:51:17;100862.07;;;33.21;43.33
64115;BME280;62188;35.640;139.748;2022-09-01T04:53:42;100867.88;;;32.71;42.96
64115;BME280;62188;35.640;139.748;2022-09-01T04:56:08;100864.26;;;32.84;42.72
64115;BME280;62188;35.640;139.748;2022-09-01T04:58:34;100859.19;;;32.93;42.41
64115;BME280;62188;35.640;139.748;2022-09-01T05:00:58;100859.35;;;32.89;42.35
64115;BME280;62188;35.640;139.748;2022-09-01T05:03:23;100852.19;;;33.10;42.47
64115;BME280;62188;35.640;139.748;2022-09-01T05:05:49;100848.14;;;32.95;42.60
64115;BME280;62188;35.640;139.748;2022-09-01T05:08:16;100849.53;;;32.74;42.62
64115;BME280;62188;35.640;139.748;2022-09-01T05:10:40;100860.62;;;32.87;42.90
64115;BME280;62188;35.640;139.748;2022-09-01T05:13:04;100860.54;;;32.92;42.74
64115;BME280;62188;35.640;139.748;2022-09-01T05:15:29;100864.22;;;32.79;42.94
64115;BME280;62188;35.640;139.748;2022-09-01T05:17:55;100864.47;;;33.02;42.75
64115;BME280;62188;35.640;139.748;2022-09-01T05:20:20;100861.97;;;32.79;44.03
64115;BME280;62188;35.640;139.748;2022-09-01T05:22:46;100864.30;;;32.90;45.32
64115;BME280;62188;35.640;139.748;2022-09-01T05:25:11;100869.75;;;32.58;45.66
64115;BME280;62188;35.640;139.748;2022-09-01T05:27:36;100871.53;;;32.82;46.07
64115;BME280;62188;35.640;139.748;2022-09-01T05:30:01;100868.81;;;32.90;45.96
64115;BME280;62188;35.640;139.748;2022-09-01T05:32:27;100865.22;;;32.71;45.94
64115;BME280;62188;35.640;139.748;2022-09-01T05:34:52;100869.59;;;32.58;46.23
64115;BME280;62188;35.640;139.748;2022-09-01T05:37:18;100875.91;;;32.70;46.64
64115;BME280;62188;35.640;139.748;2022-09-01T05:39:43;100877.96;;;32.54;47.08
64115;BME280;62188;35.640;139.748;2022-09-01T05:42:08;100871.77;;;32.57;47.00
64115;BME280;62188;35.640;139.748;2022-09-01T05:44:33;100871.84;;;32.72;46.77
64115;BME280;62188;35.640;139.748;2022-09-01T05:47:00;100872.93;;;32.76;45.85
64115;BME280;62188;35.640;139.748;2022-09-01T05:49:24;100874.55;;;32.74;45.99
64115;BME280;62188;35.640;139.748;2022-09-01T05:51:50;100878.50;;;33.14;45.50
64115;BME280;62188;35.640;139.748;2022-09-01T05:54:15;100874.70;;;32.79;45.32
64115;BME280;62188;35.640;139.748;2022-09-01T05:56:40;100883.70;;;32.84;44.64
64115;BME280;62188;35.640;139.748;2022-09-01T05:59:06;100890.60;;;33.05;44.68
64115;BME280;62188;35.640;139.748;2022-09-01T06:01:30;100889.18;;;33.00;44.98
64115;BME280;62188;35.640;139.748;2022-09-01T06:03:56;100886.77;;;33.00;45.07
64115;BME280;62188;35.640;139.748;2022-09-01T06:06:21;100885.53;;;32.73;44.50
64115;BME280;62188;35.640;139.748;2022-09-01T06:08:46;100894.76;;;32.87;44.31
64115;BME280;62188;35.640;139.748;2022-09-01T06:11:12;100887.90;;;32.74;44.28
64115;BME280;62188;35.640;139.748;2022-09-01T06:13:37;100888.24;;;32.98;44.45
64115;BME280;62188;35.640;139.748;2022-09-01T06:16:03;100899.15;;;32.84;44.56
64115;BME280;62188;35.640;139.748;2022-09-01T06:18:28;100902.10;;;32.63;44.16
64115;BME280;62188;35.640;139.748;2022-09-01T06:20:53;100904.92;;;32.67;44.37
64115;BME280;62188;35.640;139.748;2022-09-01T06:23:18;100907.12;;;32.53;44.12
64115;BME280;62188;35.640;139.748;2022-09-01T06:25:45;100914.49;;;32.50;44.04
64115;BME280;62188;35.640;139.748;2022-09-01T06:28:09;100912.80;;;32.73;44.08
64115;BME280;62188;35.640;139.748;2022-09-01T06:30:34;100912.10;;;32.89;44.26
64115;BME280;62188;35.640;139.748;2022-09-01T06:32:59;100920.92;;;32.64;44.29
64115;BME280;62188;35.640;139.748;2022-09-01T06:35:25;100923.04;;;32.31;44.39
64115;BME280;62188;35.640;139.748;2022-09-01T06:37:51;100932.92;;;32.47;44.58
64115;BME280;62188;35.640;139.748;2022-09-01T06:40:16;100935.25;;;32.31;44.96
64115;BME280;62188;35.640;139.748;2022-09-01T06:42:41;100938.36;;;32.23;45.40
64115;BME280;62188;35.640;139.748;2022-09-01T06:45:07;100942.28;;;32.25;45.37
64115;BME280;62188;35.640;139.748;2022-09-01T06:47:31;100941.55;;;32.51;45.35
64115;BME280;62188;35.640;139.748;2022-09-01T06:49:56;100941.87;;;32.19;45.49
64115;BME280;62188;35.640;139.748;2022-09-01T06:52:22;100946.94;;;32.39;45.78
64115;BME280;62188;35.640;139.748;2022-09-01T06:54:47;100955.10;;;32.11;45.87
64115;BME280;62188;35.640;139.748;2022-09-01T06:57:12;100951.94;;;32.38;45.82
64115;BME280;62188;35.640;139.748;2022-09-01T06:59:37;100945.50;;;32.44;45.99
64115;BME280;62188;35.640;139.748;2022-09-01T07:02:03;100952.52;;;32.20;45.96
64115;BME280;62188;35.640;139.748;2022-09-01T07:04:29;100951.98;;;32.13;46.33
64115;BME280;62188;35.640;139.748;2022-09-01T07:06:53;100951.25;;;32.18;46.35
64115;BME280;62188;35.640;139.748;2022-09-01T07:09:19;100954.59;;;32.12;46.51
64115;BME280;62188;35.640;139.748;2022-09-01T07:11:44;100959.52;;;32.17;46.50
64115;BME280;62188;35.640;139.748;2022-09-01T07:14:09;100956.06;;;32.23;46.45
64115;BME280;62188;35.640;139.748;2022-09-01T07:16:36;100962.87;;;32.21;46.68
64115;BME280;62188;35.640;139.748;2022-09-01T07:19:01;100968.93;;;32.23;46.91
64115;BME280;62188;35.640;139.748;2022-09-01T07:21:26;100973.30;;;32.43;46.77
64115;BME280;62188;35.640;139.748;2022-09-01T07:23:50;100970.41;;;32.15;46.81
64115;BME280;62188;35.640;139.748;2022-09-01T07:26:16;100967.00;;;32.36;47.21
64115;BME280;62188;35.640;139.748;2022-09-01T07:28:40;100967.90;;;32.11;46.93
64115;BME280;62188;35.640;139.748;2022-09-01T07:31:06;100965.54;;;32.09;47.08
64115;BME280;62188;35.640;139.748;2022-09-01T07:33:32;100964.51;;;32.25;47.18
64115;BME280;62188;35.640;139.748;2022-09-01T07:35:56;100967.55;;;32.02;47.03
64115;BME280;62188;35.640;139.748;2022-09-01T07:38:22;100967.59;;;32.03;46.83
64115;BME280;62188;35.640;139.748;2022-09-01T07:40:47;100964.50;;;32.22;46.55
64115;BME280;62188;35.640;139.748;2022-09-01T07:43:17;100953.54;;;31.96;46.71
64115;BME280;62188;35.640;139.748;2022-09-01T07:45:40;100943.73;;;32.19;46.99
64115;BME280;62188;35.640;139.748;2022-09-01T07:48:04;100938.48;;;31.79;47.28
64115;BME280;62188;35.640;139.748;2022-09-01T07:50:28;100939.65;;;32.05;47.41
64115;BME280;62188;35.640;139.748;2022-09-01T07:52:53;100944.72;;;31.93;47.30
64115;BME280;62188;35.640;139.748;2022-09-01T07:55:19;100942.25;;;31.68;47.35
64115;BME280;62188;35.640;139.748;2022-09-01T07:57:45;100947.22;;;31.93;47.42
64115;BME280;62188;35.640;139.748;2022-09-01T08:00:10;100953.59;;;31.65;47.41
64115;BME280;62188;35.640;139.748;2022-09-01T08:02:34;100961.55;;;31.92;47.52
64115;BME280;62188;35.640;139.748;2022-09-01T08:05:00;100973.83;;;31.95;47.30
64115;BME280;62188;35.640;139.748;2022-09-01T08:07:25;100987.78;;;31.96;47.01
64115;BME280;62188;35.640;139.748;2022-09-01T08:09:50;101009.80;;;31.77;46.67
64115;BME280;62188;35.640;139.748;2022-09-01T08:12:15;101024.37;;;32.05;46.89
64115;BME280;62188;35.640;139.748;2022-09-01T08:14:40;101030.52;;;32.06;46.90
64115;BME280;62188;35.640;139.748;2022-09-01T08:17:06;101028.61;;;32.08;47.02
64115;BME280;62188;35.640;139.748;2022-09-01T08:19:31;101031.31;;;31.86;46.56
64115;BME280;62188;35.640;139.748;2022-09-01T08:21:56;101033.76;;;32.12;46.40
64115;BME280;62188;35.640;139.748;2022-09-01T08:24:21;101036.01;;;32.10;46.64
64115;BME280;62188;35.640;139.748;2022-09-01T08:26:47;101043.67;;;31.85;46.60
64115;BME280;62188;35.640;139.748;2022-09-01T08:29:12;101049.77;;;32.08;46.48
64115;BME280;62188;35.640;139.748;2022-09-01T08:31:37;101060.17;;;31.89;46.51
64115;BME280;62188;35.640;139.748;2022-09-01T08:34:03;101073.15;;;32.15;46.50
64115;BME280;62188;35.640;139.748;2022-09-01T08:36:27;101082.95;;;31.62;43.52
64115;BME280;62188;35.640;139.748;2022-09-01T08:38:53;101090.02;;;31.70;43.38
64115;BME280;62188;35.640;139.748;2022-09-01T08:41:23;101105.99;;;31.58;42.66
64115;BME280;62188;35.640;139.748;2022-09-01T08:43:54;101111.37;;;31.27;42.53
64115;BME280;62188;35.640;139.748;2022-09-01T08:46:14;101132.39;;;31.36;43.38
64115;BME280;62188;35.640;139.748;2022-09-01T08:48:37;101116.46;;;31.04;44.30
64115;BME280;62188;35.640;139.748;2022-09-01T08:51:04;101115.18;;;31.00;44.96
64115;BME280;62188;35.640;139.748;2022-09-01T08:53:27;101112.35;;;30.80;45.36
64115;BME280;62188;35.640;139.748;2022-09-01T08:55:55;101114.37;;;30.72;45.53
64115;BME280;62188;35.640;139.748;2022-09-01T08:58:17;101108.14;;;30.46;45.73
64115;BME280;62188;35.640;139.748;2022-09-01T09:00:43;101103.95;;;30.59;45.93
64115;BME280;62188;35.640;139.748;2022-09-01T09:03:15;101104.27;;;30.35;46.13
64115;BME280;62188;35.640;139.748;2022-09-01T09:05:40;101101.59;;;30.55;46.02
64115;BME280;62188;35.640;139.748;2022-09-01T09:08:11;101103.43;;;30.77;46.11
64115;BME280;62188;35.640;139.748;2022-09-01T09:10:25;101117.94;;;30.43;45.93
64115;BME280;62188;35.640;139.748;2022-09-01T09:12:55;101123.15;;;30.45;46.48
64115;BME280;62188;35.640;139.748;2022-09-01T09:15:20;101124.68;;;30.45;46.33
64115;BME280;62188;35.640;139.748;2022-09-01T09:17:42;101127.35;;;30.62;46.39
64115;BME280;62188;35.640;139.748;2022-09-01T09:20:05;101130.46;;;30.34;46.46
64115;BME280;62188;35.640;139.748;2022-09-01T09:22:29;101129.32;;;30.48;46.60
64115;BME280;62188;35.640;139.748;2022-09-01T09:25:01;101145.82;;;30.51;47.22
64115;BME280;62188;35.640;139.748;2022-09-01T09:27:22;101142.38;;;30.64;46.77
64115;BME280;62188;35.640;139.748;2022-09-01T09:29:47;101133.61;;;30.38;46.80
64115;BME280;62188;35.640;139.748;2022-09-01T09:32:10;101120.52;;;30.15;46.99
64115;BME280;62188;35.640;139.748;2022-09-01T09:34:37;101121.22;;;30.15;46.92
64115;BME280;62188;35.640;139.748;2022-09-01T09:39:26;101118.91;;;30.30;47.09
64115;BME280;62188;35.640;139.748;2022-09-01T09:42:03;101120.07;;;30.33;47.78
64115;BME280;62188;35.640;139.748;2022-09-01T09:44:21;101121.39;;;30.57;47.65
64115;BME280;62188;35.640;139.748;2022-09-01T09:46:44;101125.01;;;30.55;47.53
64115;BME280;62188;35.640;139.748;2022-09-01T09:49:10;101133.47;;;30.36;47.60
64115;BME280;62188;35.640;139.748;2022-09-01T09:51:33;101140.11;;;30.33;47.76
64115;BME280;62188;35.640;139.748;2022-09-01T09:54:12;101157.78;;;30.23;47.66
64115;BME280;62188;35.640;139.748;2022-09-01T09:56:23;101169.57;;;30.12;47.83
64115;BME280;62188;35.640;139.748;2022-09-01T09:58:49;101183.58;;;29.92;48.07
64115;BME280;62188;35.640;139.748;2022-09-01T10:01:26;101179.36;;;29.81;48.67
64115;BME280;62188;35.640;139.748;2022-09-01T10:03:42;101193.93;;;29.83;48.98
64115;BME280;62188;35.640;139.748;2022-09-01T10:06:04;101201.89;;;29.69;49.39
64115;BME280;62188;35.640;139.748;2022-09-01T10:08:36;101205.74;;;29.75;49.54
64115;BME280;62188;35.640;139.748;2022-09-01T10:10:56;101202.47;;;29.37;49.42
64115;BME280;62188;35.640;139.748;2022-09-01T10:13:23;101211.66;;;29.46;49.48
64115;BME280;62188;35.640;139.748;2022-09-01T10:15:50;101231.06;;;29.24;49.49
64115;BME280;62188;35.640;139.748;2022-09-01T10:18:14;101240.11;;;29.27;49.69
64115;BME280;62188;35.640;139.748;2022-09-01T10:20:38;101229.02;;;29.33;49.82
64115;BME280;62188;35.640;139.748;2022-09-01T10:23:02;101218.66;;;29.86;49.34
64115;BME280;62188;35.640;139.748;2022-09-01T10:25:30;101216.73;;;29.57;49.36
64115;BME280;62188;35.640;139.748;2022-09-01T10:27:55;101229.97;;;29.55;49.38
64115;BME280;62188;35.640;139.748;2022-09-01T10:30:19;101232.21;;;29.85;49.56
64115;BME280;62188;35.640;139.748;2022-09-01T10:32:45;101226.35;;;29.58;49.17
64115;BME280;62188;35.640;139.748;2022-09-01T10:35:13;101226.37;;;29.37;49.26
64115;BME280;62188;35.640;139.748;2022-09-01T10:37:34;101236.41;;;29.21;48.45
64115;BME280;62188;35.640;139.748;2022-09-01T10:40:11;101223.88;;;29.40;48.57
64115;BME280;62188;35.640;139.748;2022-09-01T10:42:27;101202.24;;;29.46;48.68
64115;BME280;62188;35.640;139.748;2022-09-01T10:44:55;101202.66;;;29.19;48.85
64115;BME280;62188;35.640;139.748;2022-09-01T10:52:05;101199.22;;;29.53;49.08
64115;BME280;62188;35.640;139.748;2022-09-01T10:56:57;101205.24;;;29.19;49.57
64115;BME280;62188;35.640;139.748;2022-09-01T10:59:26;101201.55;;;29.40;49.65
64115;BME280;62188;35.640;139.748;2022-09-01T11:04:13;101208.65;;;29.32;49.62
64115;BME280;62188;35.640;139.748;2022-09-01T11:06:53;101214.76;;;29.16;49.39
64115;BME280;62188;35.640;139.748;2022-09-01T11:09:05;101214.06;;;29.48;49.40
64115;BME280;62188;35.640;139.748;2022-09-01T11:11:33;101217.88;;;29.30;49.06
64115;BME280;62188;35.640;139.748;2022-09-01T11:13:55;101229.76;;;29.58;48.58
64115;BME280;62188;35.640;139.748;2022-09-01T11:16:33;101223.78;;;29.62;48.66
64115;BME280;62188;35.640;139.748;2022-09-01T11:18:44;101223.56;;;29.67;48.56
64115;BME280;62188;35.640;139.748;2022-09-01T11:21:14;101222.58;;;29.68;48.65
64115;BME280;62188;35.640;139.748;2022-09-01T11:23:34;101221.98;;;29.37;47.51
64115;BME280;62188;35.640;139.748;2022-09-01T11:26:00;101227.39;;;29.74;47.42
64115;BME280;62188;35.640;139.748;2022-09-01T11:28:35;101232.62;;;29.13;48.46
64115;BME280;62188;35.640;139.748;2022-09-01T11:30:54;101243.42;;;29.26;48.49
64115;BME280;62188;35.640;139.748;2022-09-01T11:33:26;101258.47;;;28.94;48.55
64115;BME280;62188;35.640;139.748;2022-09-01T11:35:42;101262.36;;;29.20;49.10
64115;BME280;62188;35.640;139.748;2022-09-01T11:38:07;101272.64;;;29.47;49.50
64115;BME280;62188;35.640;139.748;2022-09-01T11:40:33;101260.52;;;29.30;49.40
64115;BME280;62188;35.640;139.748;2022-09-01T11:42:58;101245.53;;;29.06;49.40
64115;BME280;62188;35.640;139.748;2022-09-01T11:45:25;101235.20;;;29.38;49.43
64115;BME280;62188;35.640;139.748;2022-09-01T11:47:49;101227.43;;;29.42;49.55
64115;BME280;62188;35.640;139.748;2022-09-01T11:50:18;101222.10;;;29.21;48.77
64115;BME280;62188;35.640;139.748;2022-09-01T11:52:39;101221.64;;;29.09;49.23
64115;BME280;62188;35.640;139.748;2022-09-01T11:55:05;101216.70;;;28.90;49.46
64115;BME280;62188;35.640;139.748;2022-09-01T11:57:31;101204.18;;;29.22;50.03
64115;BME280;62188;35.640;139.748;2022-09-01T11:59:54;101201.23;;;29.30;50.19
64115;BME280;62188;35.640;139.748;2022-09-01T12:02:21;101198.86;;;29.18;48.86
64115;BME280;62188;35.640;139.748;2022-09-01T12:04:45;101199.37;;;29.08;49.25
64115;BME280;62188;35.640;139.748;2022-09-01T12:07:13;101198.31;;;29.15;49.05
64115;BME280;62188;35.640;139.748;2022-09-01T12:09:37;101198.13;;;28.98;49.03
64115;BME280;62188;35.640;139.748;2022-09-01T12:12:01;101199.98;;;29.32;49.69
64115;BME280;62188;35.640;139.748;2022-09-01T12:14:26;101193.12;;;29.22;49.10
64115;BME280;62188;35.640;139.748;2022-09-01T12:16:57;101186.74;;;29.18;49.77
64115;BME280;62188;35.640;139.748;2022-09-01T12:19:22;101175.05;;;29.26;49.52
64115;BME280;62188;35.640;139.748;2022-09-01T12:21:42;101167.38;;;29.17;49.82
64115;BME280;62188;35.640;139.748;2022-09-01T12:24:15;101162.73;;;29.49;49.68
64115;BME280;62188;35.640;139.748;2022-09-01T12:26:32;101161.32;;;29.56;50.34
64115;BME280;62188;35.640;139.748;2022-09-01T12:28:58;101158.86;;;29.60;50.19
64115;BME280;62188;35.640;139.748;2022-09-01T12:31:24;101152.25;;;29.38;49.95